createdAt,value
2018-08-16T00:01:13.010Z,71.59
2018-08-16T00:03:43.765Z,71.82
2018-08-16T00:06:14.609Z,71.71
2018-08-16T00:08:45.473Z,71.63
2018-08-16T00:11:16.386Z,71.80
2018-08-16T00:13:47.086Z,72.02
2018-08-16T00:16:17.937Z,72.26
2018-08-16T00:18:48.772Z,72.37
2018-08-16T00:21:19.570Z,72.87
2018-08-16T00:23:50.333Z,72.76
2018-08-16T00:26:21.047Z,73.29
2018-08-16T00:28:51.799Z,73.10
2018-08-16T00:31:22.524Z,73.28
2018-08-16T00:33:53.427Z,73.44
2018-08-16T00:36:24.101Z,73.09
2018-08-16T00:38:54.813Z,73.68
2018-08-16T00:41:25.608Z,73.67
2018-08-16T00:43:56.368Z,73.48
2018-08-16T00:46:27.081Z,74.12
2018-08-16T00:48:57.846Z,74.05
2018-08-16T00:51:28.628Z,74.31
2018-08-16T00:53:59.415Z,74.42
2018-08-16T00:56:30.151Z,74.37
2018-08-16T00:59:00.925Z,74.61
2018-08-16T01:01:31.839Z,74.79
2018-08-16T01:04:02.604Z,74.85
2018-08-16T01:06:33.365Z,74.72
2018-08-16T01:09:05.225Z,74.39
2018-08-16T01:11:35.931Z,74.62
2018-08-16T01:14:08.373Z,75.15
2018-08-16T01:16:39.211Z,75.20
2018-08-16T01:19:10.030Z,74.95
2018-08-16T01:21:40.870Z,74.85
2018-08-16T01:24:11.629Z,75.42
2018-08-16T01:26:42.401Z,75.18
2018-08-16T01:29:13.212Z,75.37
2018-08-16T01:31:44.282Z,75.66
2018-08-16T01:34:15.108Z,75.16
2018-08-16T01:36:45.822Z,75.63
2018-08-16T01:39:16.619Z,75.05
2018-08-16T01:41:47.272Z,75.33
2018-08-16T01:44:18.159Z,74.67
2018-08-16T01:46:48.833Z,75.03
2018-08-16T01:49:30.047Z,74.78
2018-08-16T01:52:01.094Z,75.19
2018-08-16T01:54:32.057Z,75.31
2018-08-16T01:57:03.444Z,75.77
2018-08-16T01:59:34.151Z,75.90
2018-08-16T02:02:04.998Z,75.98
2018-08-16T02:04:35.764Z,76.01
2018-08-16T02:07:06.569Z,75.85
2018-08-16T02:09:37.411Z,75.57
2018-08-16T02:12:08.450Z,75.98
2018-08-16T02:14:39.181Z,76.04
2018-08-16T02:17:09.921Z,76.49
2018-08-16T02:19:40.707Z,76.94
2018-08-16T02:22:11.489Z,76.78
2018-08-16T02:24:42.176Z,76.57
2018-08-16T02:27:12.979Z,77.20
2018-08-16T02:29:43.733Z,77.28
2018-08-16T02:32:14.493Z,77.04
2018-08-16T02:34:45.266Z,77.53
2018-08-16T02:37:16.156Z,76.81
2018-08-16T02:39:46.888Z,77.07
2018-08-16T02:42:17.878Z,77.83
2018-08-16T02:44:48.655Z,77.68
2018-08-16T02:47:19.561Z,77.64
2018-08-16T02:49:50.298Z,78.04
2018-08-16T02:52:21.137Z,78.29
2018-08-16T02:54:51.898Z,77.84
2018-08-16T02:57:22.676Z,78.45
2018-08-16T02:59:53.400Z,78.11
2018-08-16T03:02:24.147Z,78.19
2018-08-16T03:04:54.945Z,78.17
2018-08-16T03:07:25.766Z,78.20
2018-08-16T03:09:56.462Z,78.03
2018-08-16T03:12:27.216Z,78.42
2018-08-16T03:14:57.895Z,78.52
2018-08-16T03:17:28.661Z,78.97
2018-08-16T03:19:59.344Z,79.15
2018-08-16T03:22:30.032Z,79.01
2018-08-16T03:25:00.748Z,79.04
2018-08-16T03:27:31.455Z,78.85
2018-08-16T03:30:02.219Z,78.92
2018-08-16T03:32:32.922Z,79.35
2018-08-16T03:35:03.740Z,78.74
2018-08-16T03:37:34.492Z,79.51
2018-08-16T03:40:06.024Z,79.27
2018-08-16T03:42:36.888Z,78.80
2018-08-16T03:45:08.364Z,79.01
2018-08-16T03:47:39.276Z,79.13
2018-08-16T03:50:10.162Z,79.52
2018-08-16T03:52:40.873Z,79.44
2018-08-16T03:55:11.602Z,79.46
2018-08-16T03:57:42.415Z,79.55
2018-08-16T04:00:13.143Z,79.65
2018-08-16T04:02:43.832Z,79.62
2018-08-16T04:05:14.559Z,79.79
2018-08-16T04:07:45.309Z,79.83
2018-08-16T04:10:16.129Z,79.83
2018-08-16T04:12:46.949Z,80.04
2018-08-16T04:15:17.669Z,80.25
2018-08-16T04:17:48.467Z,80.36
2018-08-16T04:20:19.217Z,80.01
2018-08-16T04:22:50.021Z,80.31
2018-08-16T04:25:20.807Z,80.35
2018-08-16T04:27:51.663Z,80.84
2018-08-16T04:30:22.503Z,80.51
2018-08-16T04:32:53.248Z,80.57
2018-08-16T04:35:24.047Z,80.48
2018-08-16T04:37:54.882Z,80.42
2018-08-16T04:40:25.725Z,80.14
2018-08-16T04:42:56.491Z,80.41
2018-08-16T04:45:27.326Z,80.39
2018-08-16T04:47:58.112Z,80.14
2018-08-16T04:50:28.923Z,80.27
2018-08-16T04:52:59.660Z,80.45
2018-08-16T04:55:30.344Z,80.34
2018-08-16T04:58:01.031Z,80.21
2018-08-16T05:00:31.758Z,80.08
2018-08-16T05:03:02.436Z,80.18
2018-08-16T05:05:33.090Z,80.23
2018-08-16T05:08:03.940Z,80.07
2018-08-16T05:10:34.723Z,79.77
2018-08-16T05:13:05.553Z,79.17
2018-08-16T05:15:36.371Z,79.21
2018-08-16T05:18:07.517Z,78.71
2018-08-16T05:20:38.243Z,78.83
2018-08-16T05:23:09.032Z,78.35
2018-08-16T05:25:39.791Z,78.46
2018-08-16T05:28:10.653Z,77.68
2018-08-16T05:30:41.404Z,77.68
2018-08-16T05:33:12.157Z,77.12
2018-08-16T05:35:42.933Z,76.95
2018-08-16T05:38:13.672Z,76.07
2018-08-16T05:40:44.478Z,75.47
2018-08-16T05:43:15.374Z,74.98
2018-08-16T05:45:46.148Z,75.07
2018-08-16T05:48:16.964Z,74.33
2018-08-16T05:50:47.950Z,73.61
2018-08-16T05:53:18.782Z,73.50
2018-08-16T05:55:49.675Z,73.25
2018-08-16T05:58:20.515Z,73.22
2018-08-16T06:00:51.321Z,72.50
2018-08-16T06:03:22.243Z,72.08
2018-08-16T06:05:53.076Z,71.31
2018-08-16T06:08:23.955Z,71.42
2018-08-16T06:10:54.848Z,70.73
2018-08-16T06:13:25.873Z,70.32
2018-08-16T06:15:56.720Z,70.08
2018-08-16T06:18:27.463Z,69.62
2018-08-16T06:20:58.164Z,68.73
2018-08-16T06:23:28.832Z,68.42
2018-08-16T06:25:59.549Z,68.00
2018-08-16T06:28:30.354Z,68.17
2018-08-16T06:31:01.169Z,67.68
2018-08-16T06:33:32.206Z,65.88
2018-08-16T06:36:02.872Z,66.44
2018-08-16T06:38:33.664Z,65.55
2018-08-16T06:41:04.430Z,64.57
2018-08-16T06:43:35.164Z,64.93
2018-08-16T06:46:05.894Z,64.30
2018-08-16T06:48:36.599Z,63.75
2018-08-16T06:51:07.372Z,63.67
2018-08-16T06:53:38.100Z,62.83
2018-08-16T06:56:08.843Z,62.23
2018-08-16T06:58:39.591Z,62.03
2018-08-16T07:01:10.547Z,61.49
2018-08-16T07:03:41.322Z,61.59
2018-08-16T07:06:12.104Z,61.85
2018-08-16T07:08:42.890Z,61.50
2018-08-16T07:11:13.600Z,61.40
2018-08-16T07:13:44.253Z,60.65
2018-08-16T07:16:14.940Z,59.60
2018-08-16T07:18:45.725Z,59.58
2018-08-16T07:21:16.438Z,60.06
2018-08-16T07:23:47.040Z,60.18
2018-08-16T07:26:23.486Z,58.71
2018-08-16T07:28:54.089Z,57.90
2018-08-16T07:31:24.865Z,58.36
2018-08-16T07:33:55.549Z,57.28
2018-08-16T07:36:26.317Z,56.53
2018-08-16T07:38:57.115Z,56.22
2018-08-16T07:41:28.352Z,56.47
2018-08-16T07:44:00.169Z,55.32
2018-08-16T07:46:30.901Z,54.67
2018-08-16T07:49:01.541Z,54.90
2018-08-16T07:51:32.409Z,54.81
2018-08-16T07:54:02.920Z,54.66
2018-08-16T07:56:33.529Z,53.71
2018-08-16T07:59:04.368Z,54.31
2018-08-16T08:01:35.075Z,53.67
2018-08-16T08:04:05.875Z,53.38
2018-08-16T08:06:39.522Z,53.30
2018-08-16T08:09:10.934Z,53.45
2018-08-16T08:11:41.475Z,53.30
2018-08-16T08:14:12.184Z,52.64
2018-08-16T08:16:43.101Z,52.94
2018-08-16T08:19:13.768Z,52.64
2018-08-16T08:21:44.490Z,51.72
2018-08-16T08:24:15.231Z,51.87
2018-08-16T08:26:45.938Z,52.49
2018-08-16T08:29:16.581Z,51.91
2018-08-16T08:31:47.524Z,52.48
2018-08-16T08:34:18.280Z,52.51
2018-08-16T08:37:05.811Z,51.77
2018-08-16T08:39:36.525Z,52.07
2018-08-16T08:42:07.180Z,51.94
2018-08-16T08:44:37.967Z,52.38
2018-08-16T08:47:08.726Z,51.04
2018-08-16T08:49:39.429Z,50.30
2018-08-16T08:52:10.133Z,49.44
2018-08-16T08:54:58.166Z,48.85
2018-08-16T08:57:45.563Z,48.33
2018-08-16T09:00:16.348Z,47.54
2018-08-16T09:02:47.073Z,46.49
2018-08-16T09:05:17.760Z,45.91
2018-08-16T09:07:48.445Z,45.74
2018-08-16T09:11:05.435Z,43.41
2018-08-16T09:13:53.901Z,43.24
2018-08-16T09:16:31.036Z,42.69
2018-08-16T09:19:01.965Z,44.26
2018-08-16T09:21:33.307Z,43.47
2018-08-16T09:24:04.135Z,43.74
2018-08-16T09:26:43.111Z,42.57
2018-08-16T09:30:40.087Z,43.50
2018-08-16T09:33:27.476Z,43.51
2018-08-16T09:35:58.166Z,43.42
2018-08-16T09:38:28.884Z,44.09
2018-08-16T09:40:59.638Z,43.14
2018-08-16T09:43:30.335Z,43.04
2018-08-16T09:47:16.543Z,42.68
2018-08-16T09:49:50.318Z,41.74
2018-08-16T09:52:21.872Z,41.84
2018-08-16T09:54:52.637Z,42.94
2018-08-16T09:57:23.365Z,42.28
2018-08-16T09:59:54.024Z,42.07
2018-08-16T10:02:24.717Z,41.70
2018-08-16T10:04:55.391Z,41.75
2018-08-16T10:07:26.079Z,40.85
2018-08-16T10:09:56.718Z,42.31
2018-08-16T10:12:27.522Z,40.39
2018-08-16T10:14:58.329Z,39.79
2018-08-16T10:17:29.132Z,40.35
2018-08-16T10:19:59.836Z,40.59
2018-08-16T10:22:30.492Z,39.11
2018-08-16T10:25:01.239Z,39.77
2018-08-16T10:27:32.008Z,39.54
2018-08-16T10:30:02.749Z,40.05
2018-08-16T10:32:33.506Z,39.45
2018-08-16T10:35:04.761Z,38.58
2018-08-16T10:37:36.037Z,39.36
2018-08-16T10:40:06.810Z,38.70
2018-08-16T10:42:38.768Z,39.13
2018-08-16T10:45:09.422Z,39.50
2018-08-16T10:47:40.190Z,39.79
2018-08-16T10:50:11.068Z,41.07
2018-08-16T10:52:41.962Z,39.20
2018-08-16T10:55:12.717Z,38.63
2018-08-16T10:57:43.473Z,38.44
2018-08-16T11:00:14.308Z,37.18
2018-08-16T11:02:45.136Z,34.52
2018-08-16T11:05:16.086Z,36.61
2018-08-16T11:07:46.844Z,36.09
2018-08-16T11:10:17.667Z,36.45
2018-08-16T11:12:48.351Z,35.27
2018-08-16T11:15:19.164Z,33.29
2018-08-16T11:17:50.002Z,34.35
2018-08-16T11:20:20.702Z,35.08
2018-08-16T11:22:51.384Z,36.33
2018-08-16T11:25:22.186Z,36.30
2018-08-16T11:27:53.892Z,36.38
2018-08-16T11:30:24.648Z,35.85
2018-08-16T11:32:55.709Z,33.91
2018-08-16T11:35:26.432Z,35.00
2018-08-16T11:37:57.721Z,36.05
2018-08-16T11:40:28.356Z,32.62
2018-08-16T11:43:00.021Z,32.92
2018-08-16T11:45:30.729Z,33.96
2018-08-16T11:48:01.424Z,34.80
2018-08-16T11:50:32.191Z,34.07
2018-08-16T11:53:02.928Z,34.15
2018-08-16T11:55:33.605Z,32.69
2018-08-16T11:58:04.277Z,33.12
2018-08-16T12:00:35.019Z,33.35
2018-08-16T12:03:06.207Z,33.47
2018-08-16T12:05:36.924Z,33.10
2018-08-16T12:08:07.720Z,33.01
2018-08-16T12:10:38.524Z,33.70
2018-08-16T12:13:09.344Z,33.03
2018-08-16T12:15:40.061Z,33.46
2018-08-16T12:18:11.085Z,34.13
2018-08-16T12:20:41.808Z,33.14
2018-08-16T12:23:13.514Z,32.99
2018-08-16T12:25:44.289Z,31.52
2018-08-16T12:28:15.711Z,32.82
2018-08-16T12:30:46.725Z,33.35
2018-08-16T12:33:17.475Z,34.19
2018-08-16T12:35:48.244Z,33.44
2018-08-16T12:38:18.909Z,33.34
2018-08-16T12:40:52.341Z,33.82
2018-08-16T12:43:26.568Z,32.13
2018-08-16T12:45:59.099Z,33.12
2018-08-16T12:48:29.881Z,32.30
2018-08-16T12:51:00.568Z,32.49
2018-08-16T12:53:31.390Z,30.33
2018-08-16T12:56:02.132Z,30.11
2018-08-16T12:58:32.989Z,30.63
2018-08-16T13:01:03.711Z,31.49
2018-08-16T13:03:34.415Z,30.26
2018-08-16T13:06:05.257Z,30.27
2018-08-16T13:08:35.988Z,29.59
2018-08-16T13:11:07.300Z,29.43
2018-08-16T13:13:38.103Z,29.24
2018-08-16T13:16:08.821Z,29.80
2018-08-16T13:18:39.640Z,29.00
2018-08-16T13:21:10.773Z,29.41
2018-08-16T13:23:42.391Z,30.10
2018-08-16T13:26:15.418Z,28.37
2018-08-16T13:28:46.164Z,29.64
2018-08-16T13:31:17.530Z,30.51
2018-08-16T13:33:48.388Z,30.53
2018-08-16T13:36:19.105Z,30.06
2018-08-16T13:38:49.926Z,29.77
2018-08-16T13:41:21.446Z,29.67
2018-08-16T13:43:51.368Z,28.80
2018-08-16T13:46:22.156Z,28.92
2018-08-16T13:48:52.992Z,29.56
2018-08-16T13:51:23.652Z,28.06
2018-08-16T13:53:54.401Z,28.40
2018-08-16T13:56:25.164Z,28.61
2018-08-16T13:58:56.012Z,28.05
2018-08-16T14:01:26.729Z,28.04
2018-08-16T14:03:57.635Z,27.74
2018-08-16T14:06:28.382Z,27.30
2018-08-16T14:08:59.045Z,27.27
2018-08-16T14:11:29.698Z,27.78
2018-08-16T14:14:19.427Z,28.16
2018-08-16T14:16:55.431Z,29.75
2018-08-16T14:19:26.172Z,27.40
2018-08-16T14:21:56.934Z,27.76
2018-08-16T14:24:27.675Z,27.87
2018-08-16T14:26:58.404Z,27.40
2018-08-16T14:29:29.345Z,27.05
2018-08-16T14:32:00.209Z,26.64
2018-08-16T14:34:30.949Z,26.52
2018-08-16T14:37:01.672Z,27.35
2018-08-16T14:39:32.496Z,26.55
2018-08-16T14:42:03.374Z,26.70
2018-08-16T14:44:34.226Z,27.26
2018-08-16T14:47:05.149Z,27.71
2018-08-16T14:49:35.865Z,27.37
2018-08-16T14:52:06.711Z,26.50
2018-08-16T14:54:37.416Z,27.06
2018-08-16T14:57:08.857Z,27.72
2018-08-16T14:59:39.613Z,27.75
2018-08-16T15:02:10.357Z,29.21
2018-08-16T15:04:41.064Z,28.65
2018-08-16T15:07:11.761Z,28.53
2018-08-16T15:09:42.435Z,28.86
2018-08-16T15:12:13.266Z,28.34
2018-08-16T15:14:44.269Z,29.16
2018-08-16T15:17:16.289Z,28.18
2018-08-16T15:19:47.070Z,28.93
2018-08-16T15:22:18.448Z,29.32
2018-08-16T15:24:49.304Z,28.13
2018-08-16T15:27:19.957Z,26.99
2018-08-16T15:29:50.833Z,28.16
2018-08-16T15:32:21.554Z,28.36
2018-08-16T15:34:52.790Z,28.11
2018-08-16T15:37:23.864Z,29.43
2018-08-16T15:39:54.591Z,29.04
2018-08-16T15:42:26.230Z,29.41
2018-08-16T15:44:56.934Z,29.14
2018-08-16T15:47:27.698Z,28.69
2018-08-16T15:49:58.459Z,29.75
2018-08-16T15:52:29.151Z,30.38
2018-08-16T15:54:59.797Z,29.54
2018-08-16T15:57:30.505Z,29.63
2018-08-16T16:00:02.058Z,30.23
2018-08-16T16:02:34.315Z,30.63
2018-08-16T16:05:05.079Z,30.74
2018-08-16T16:07:35.825Z,30.57
2018-08-16T16:10:07.208Z,29.79
2018-08-16T16:12:37.911Z,29.80
2018-08-16T16:15:10.469Z,30.26
2018-08-16T16:17:41.188Z,30.57
2018-08-16T16:20:11.900Z,30.95
2018-08-16T16:22:42.618Z,31.43
2018-08-16T16:25:13.287Z,31.11
2018-08-16T16:27:43.973Z,30.71
2018-08-16T16:30:15.751Z,30.74
2018-08-16T16:32:46.453Z,31.57
2018-08-16T16:35:17.339Z,31.45
2018-08-16T16:37:48.018Z,32.38
2018-08-16T16:40:18.730Z,32.26
2018-08-16T16:42:49.513Z,32.61
2018-08-16T16:45:20.189Z,32.49
2018-08-16T16:47:50.959Z,32.44
2018-08-16T16:50:21.654Z,32.48
2018-08-16T16:52:52.454Z,32.96
2018-08-16T16:55:23.118Z,33.22
2018-08-16T16:57:53.846Z,32.95
2018-08-16T17:00:25.486Z,33.54
2018-08-16T17:02:56.162Z,34.59
2018-08-16T17:05:32.628Z,34.19
2018-08-16T17:08:03.469Z,33.95
2018-08-16T17:10:34.367Z,34.09
2018-08-16T17:13:05.325Z,34.17
2018-08-16T17:15:36.106Z,34.76
2018-08-16T17:18:10.070Z,34.81
2018-08-16T17:20:41.123Z,35.05
2018-08-16T17:23:12.006Z,35.10
2018-08-16T17:25:42.917Z,35.45
2018-08-16T17:28:14.321Z,35.89
2018-08-16T17:30:45.167Z,35.68
2018-08-16T17:33:16.017Z,35.36
2018-08-16T17:35:46.790Z,35.82
2018-08-16T17:38:17.614Z,36.19
2018-08-16T17:40:49.380Z,35.80
2018-08-16T17:43:30.053Z,35.59
2018-08-16T17:46:07.678Z,35.67
2018-08-16T17:48:38.840Z,36.02
2018-08-16T17:51:09.662Z,36.77
2018-08-16T17:53:40.632Z,36.34
2018-08-16T17:56:11.510Z,37.05
2018-08-16T17:58:42.352Z,36.77
2018-08-16T18:01:13.191Z,37.48
2018-08-16T18:03:44.683Z,38.05
2018-08-16T18:06:15.593Z,37.73
2018-08-16T18:08:46.400Z,38.52
2018-08-16T18:11:22.451Z,38.45
2018-08-16T18:13:53.470Z,38.89
2018-08-16T18:16:24.305Z,39.55
2018-08-16T18:18:55.308Z,39.44
2018-08-16T18:21:26.455Z,40.23
2018-08-16T18:23:57.385Z,40.61
2018-08-16T18:26:28.633Z,40.74
2018-08-16T18:28:59.459Z,41.13
2018-08-16T18:31:30.304Z,41.32
2018-08-16T18:34:01.184Z,42.09
2018-08-16T18:36:31.924Z,42.48
2018-08-16T18:39:02.609Z,42.64
2018-08-16T18:41:33.273Z,42.83
2018-08-16T18:44:04.037Z,43.21
2018-08-16T18:46:34.828Z,43.20
2018-08-16T18:49:05.540Z,43.84
2018-08-16T18:51:36.327Z,44.52
2018-08-16T18:54:07.070Z,44.66
2018-08-16T18:56:37.780Z,45.15
2018-08-16T18:59:08.516Z,45.37
2018-08-16T19:01:39.270Z,45.89
2018-08-16T19:04:10.124Z,46.12
2018-08-16T19:06:40.799Z,46.74
2018-08-16T19:09:11.586Z,46.80
2018-08-16T19:11:42.309Z,47.49
2018-08-16T19:14:13.118Z,47.48
2018-08-16T19:16:43.815Z,47.78
2018-08-16T19:19:14.590Z,48.64
2018-08-16T19:21:45.449Z,48.60
2018-08-16T19:24:16.290Z,48.69
2018-08-16T19:26:47.205Z,49.04
2018-08-16T19:29:17.937Z,49.24
2018-08-16T19:31:48.857Z,49.25
2018-08-16T19:34:19.661Z,49.79
2018-08-16T19:36:50.574Z,50.36
2018-08-16T19:39:21.300Z,50.72
2018-08-16T19:41:52.163Z,50.18
2018-08-16T19:44:22.969Z,50.47
2018-08-16T19:46:53.803Z,50.88
2018-08-16T19:49:24.616Z,51.03
2018-08-16T19:51:55.980Z,50.79
2018-08-16T19:54:26.682Z,51.30
2018-08-16T19:56:57.558Z,51.36
2018-08-16T19:59:28.336Z,52.08
2018-08-16T20:01:59.858Z,51.59
2018-08-16T20:04:31.919Z,51.90
2018-08-16T20:07:03.413Z,51.73
2018-08-16T20:09:34.223Z,52.21
2018-08-16T20:12:05.173Z,52.13
2018-08-16T20:14:35.884Z,52.43
2018-08-16T20:17:06.749Z,52.86
2018-08-16T20:19:37.567Z,52.88
2018-08-16T20:22:15.887Z,52.84
2018-08-16T20:24:47.325Z,53.34
2018-08-16T20:27:18.843Z,53.48
2018-08-16T20:29:49.627Z,53.52
2018-08-16T20:32:20.382Z,54.26
2018-08-16T20:34:51.092Z,54.29
2018-08-16T20:37:21.812Z,54.68
2018-08-16T20:39:52.655Z,54.43
2018-08-16T20:42:23.404Z,55.11
2018-08-16T20:44:54.129Z,54.95
2018-08-16T20:47:24.927Z,54.72
2018-08-16T20:49:55.696Z,54.72
2018-08-16T20:52:26.580Z,54.86
2018-08-16T20:54:57.272Z,55.51
2018-08-16T20:57:27.981Z,55.55
2018-08-16T20:59:58.648Z,55.63
2018-08-16T21:02:29.416Z,55.53
2018-08-16T21:05:00.083Z,56.20
2018-08-16T21:07:30.866Z,56.13
2018-08-16T21:10:01.614Z,55.75
2018-08-16T21:12:32.319Z,56.01
2018-08-16T21:15:03.066Z,56.46
2018-08-16T21:17:33.744Z,56.32
2018-08-16T21:20:04.981Z,56.75
2018-08-16T21:22:35.675Z,56.94
2018-08-16T21:25:07.537Z,57.09
2018-08-16T21:27:38.311Z,56.85
2018-08-16T21:30:09.058Z,57.20
2018-08-16T21:32:39.773Z,57.08
2018-08-16T21:35:10.557Z,57.38
2018-08-16T21:37:41.310Z,57.99
2018-08-16T21:40:12.060Z,57.84
2018-08-16T21:42:42.771Z,58.22
2018-08-16T21:45:13.485Z,57.94
2018-08-16T21:47:44.194Z,58.19
2018-08-16T21:50:15.010Z,57.82
2018-08-16T21:52:45.746Z,58.20
2018-08-16T21:55:16.475Z,58.00
2018-08-16T21:57:47.183Z,58.68
2018-08-16T22:00:52.883Z,59.33
2018-08-16T22:03:27.634Z,58.95
2018-08-16T22:06:09.220Z,59.10
2018-08-16T22:08:50.428Z,59.29
2018-08-16T22:11:21.146Z,60.19
2018-08-16T22:13:51.955Z,60.04
2018-08-16T22:16:22.744Z,59.67
2018-08-16T22:18:53.551Z,59.71
2018-08-16T22:21:24.393Z,60.15
2018-08-16T22:23:55.173Z,60.11
2018-08-16T22:26:25.963Z,60.38
2018-08-16T22:28:56.704Z,59.98
2018-08-16T22:31:27.557Z,59.98
2018-08-16T22:33:58.390Z,60.39
2018-08-16T22:36:29.100Z,60.57
2018-08-16T22:38:59.844Z,60.47
2018-08-16T22:41:30.549Z,60.93
2018-08-16T22:44:01.315Z,60.34
2018-08-16T22:46:32.040Z,60.34
2018-08-16T22:49:02.743Z,60.48
2018-08-16T22:51:33.510Z,61.07
2018-08-16T22:54:04.387Z,61.11
2018-08-16T22:56:35.135Z,61.06
2018-08-16T22:59:06.026Z,61.51
2018-08-16T23:01:36.780Z,61.02
2018-08-16T23:04:07.542Z,60.94
2018-08-16T23:06:38.277Z,61.47
2018-08-16T23:09:09.214Z,61.17
2018-08-16T23:11:39.975Z,61.83
2018-08-16T23:14:10.684Z,61.92
2018-08-16T23:16:41.444Z,62.24
2018-08-16T23:19:12.268Z,61.78
2018-08-16T23:21:42.975Z,62.00
2018-08-16T23:24:13.778Z,61.95
2018-08-16T23:26:44.523Z,62.41
2018-08-16T23:29:15.300Z,62.12
2018-08-16T23:31:45.998Z,62.35
2018-08-16T23:34:16.825Z,62.04
2018-08-16T23:36:47.667Z,62.35
2018-08-16T23:39:18.462Z,62.09
2018-08-16T23:41:49.205Z,62.07
2018-08-16T23:44:20.039Z,62.71
2018-08-16T23:46:50.796Z,62.55
2018-08-16T23:49:21.588Z,62.58
2018-08-16T23:51:52.324Z,62.81
2018-08-16T23:54:23.126Z,63.00
2018-08-16T23:56:53.855Z,62.89
2018-08-16T23:59:24.672Z,63.16
